sensor_id;sensor_type;location;lat;lon;timestamp;pressure;altitude;pressure_sealevel;temperature;humidity
23473;BME280;11909;52.516;13.564;2022-11-20T00:01:07;100507.25;;;-0.51;100.00
23473;BME280;11909;52.516;13.564;2022-11-20T00:03:34;100509.50;;;-0.48;100.00
23473;BME280;11909;52.516;13.564;2022-11-20T00:06:01;100501.25;;;-0.60;100.00
23473;BME280;11909;52.516;13.564;2022-11-20T00:08:29;100509.13;;;-0.51;100.00
23473;BME280;11909;52.516;13.564;2022-11-20T00:10:56;100508.94;;;-0.56;100.00
23473;BME280;11909;52.516;13.564;2022-11-20T00:13:23;100508.91;;;-0.50;100.00
23473;BME280;11909;52.516;13.564;2022-11-20T00:15:56;100509.13;;;-0.51;100.00
23473;BME280;11909;52.516;13.564;2022-11-20T00:18:23;100495.66;;;-0.58;100.00
23473;BME280;11909;52.516;13.564;2022-11-20T00:20:50;100501.91;;;-0.57;100.00
23473;BME280;11909;52.516;13.564;2022-11-20T00:23:16;100506.47;;;-0.65;100.00
23473;BME280;11909;52.516;13.564;2022-11-20T00:25:44;100500.88;;;-0.63;100.00
23473;BME280;11909;52.516;13.564;2022-11-20T00:28:11;100508.78;;;-0.68;100.00
23473;BME280;11909;52.516;13.564;2022-11-20T00:30:38;100505.59;;;-0.59;100.00
23473;BME280;11909;52.516;13.564;2022-11-20T00:33:04;100508.13;;;-0.70;100.00
23473;BME280;11909;52.516;13.564;2022-11-20T00:35:31;100508.72;;;-0.62;100.00
23473;BME280;11909;52.516;13.564;2022-11-20T00:37:57;100504.59;;;-0.64;100.00
23473;BME280;11909;52.516;13.564;2022-11-20T00:40:24;100511.84;;;-0.58;100.00
23473;BME280;11909;52.516;13.564;2022-11-20T00:42:52;100507.91;;;-0.55;100.00
23473;BME280;11909;52.516;13.564;2022-11-20T00:45:18;100512.44;;;-0.56;100.00
23473;BME280;11909;52.516;13.564;2022-11-20T00:47:45;100511.84;;;-0.58;100.00
23473;BME280;11909;52.516;13.564;2022-11-20T00:50:11;100513.91;;;-0.60;100.00
23473;BME280;11909;52.516;13.564;2022-11-20T00:52:38;100512.44;;;-0.49;100.00
23473;BME280;11909;52.516;13.564;2022-11-20T00:55:05;100511.03;;;-0.72;100.00
23473;BME280;11909;52.516;13.564;2022-11-20T00:57:32;100508.53;;;-0.67;100.00
23473;BME280;11909;52.516;13.564;2022-11-20T01:00:00;100512.25;;;-0.61;100.00
23473;BME280;11909;52.516;13.564;2022-11-20T01:02:26;100512.69;;;-0.57;100.00
23473;BME280;11909;52.516;13.564;2022-11-20T01:04:53;100510.38;;;-0.61;100.00
23473;BME280;11909;52.516;13.564;2022-11-20T01:07:19;100509.94;;;-0.51;100.00
23473;BME280;11909;52.516;13.564;2022-11-20T01:09:46;100512.47;;;-0.63;100.00
23473;BME280;11909;52.516;13.564;2022-11-20T01:12:12;100515.38;;;-0.57;100.00
23473;BME280;11909;52.516;13.564;2022-11-20T01:14:39;100505.19;;;-0.55;100.00
23473;BME280;11909;52.516;13.564;2022-11-20T01:17:07;100508.53;;;-0.60;100.00
23473;BME280;11909;52.516;13.564;2022-11-20T01:19:33;100513.06;;;-0.54;100.00
23473;BME280;11909;52.516;13.564;2022-11-20T01:22:00;100505.22;;;-0.62;100.00
23473;BME280;11909;52.516;13.564;2022-11-20T01:24:26;100504.78;;;-0.52;100.00
23473;BME280;11909;52.516;13.564;2022-11-20T01:26:53;100501.06;;;-0.72;100.00
23473;BME280;11909;52.516;13.564;2022-11-20T01:29:21;100499.38;;;-0.52;100.00
23473;BME280;11909;52.516;13.564;2022-11-20T01:31:48;100498.78;;;-0.54;100.00
23473;BME280;11909;52.516;13.564;2022-11-20T01:34:18;100499.41;;;-0.59;100.00
23473;BME280;11909;52.516;13.564;2022-11-20T01:36:45;100501.06;;;-0.58;100.00
23473;BME280;11909;52.516;13.564;2022-11-20T01:39:13;100502.53;;;-0.62;100.00
23473;BME280;11909;52.516;13.564;2022-11-20T01:41:41;100500.25;;;-0.72;100.00
23473;BME280;11909;52.516;13.564;2022-11-20T01:44:47;100503.75;;;-0.65;100.00
23473;BME280;11909;52.516;13.564;2022-11-20T01:47:17;100500.25;;;-0.65;100.00
23473;BME280;11909;52.516;13.564;2022-11-20T01:49:51;100497.16;;;-0.76;100.00
23473;BME280;11909;52.516;13.564;2022-11-20T01:52:20;100497.13;;;-0.62;100.00
23473;BME280;11909;52.516;13.564;2022-11-20T01:54:50;100493.59;;;-0.63;100.00
23473;BME280;11909;52.516;13.564;2022-11-20T01:57:19;100499.66;;;-0.74;100.00
23473;BME280;11909;52.516;13.564;2022-11-20T01:59:50;100495.66;;;-0.58;100.00
23473;BME280;11909;52.516;13.564;2022-11-20T02:02:20;100491.75;;;-0.76;100.00
23473;BME280;11909;52.516;13.564;2022-11-20T02:04:49;100490.53;;;-0.73;100.00
23473;BME280;11909;52.516;13.564;2022-11-20T02:07:18;100485.56;;;-0.76;100.00
23473;BME280;11909;52.516;13.564;2022-11-20T02:09:45;100486.97;;;-0.67;100.00
23473;BME280;11909;52.516;13.564;2022-11-20T02:12:12;100491.56;;;-0.67;100.00
23473;BME280;11909;52.516;13.564;2022-11-20T02:14:52;100486.78;;;-0.72;100.00
23473;BME280;11909;52.516;13.564;2022-11-20T02:17:19;100481.41;;;-0.79;100.00
23473;BME280;11909;52.516;13.564;2022-11-20T02:19:46;100481.16;;;-0.70;100.00
23473;BME280;11909;52.516;13.564;2022-11-20T02:22:19;100484.53;;;-0.82;100.00
23473;BME280;11909;52.516;13.564;2022-11-20T02:24:51;100488.03;;;-0.75;100.00
23473;BME280;11909;52.516;13.564;2022-11-20T02:27:18;100482.19;;;-0.65;100.00
23473;BME280;11909;52.516;13.564;2022-11-20T02:29:47;100482.63;;;-0.75;100.00
23473;BME280;11909;52.516;13.564;2022-11-20T02:32:20;100476.66;;;-0.83;100.00
23473;BME280;11909;52.516;13.564;2022-11-20T02:34:48;100477.47;;;-0.76;100.00
23473;BME280;11909;52.516;13.564;2022-11-20T02:37:15;100484.53;;;-0.82;100.00
23473;BME280;11909;52.516;13.564;2022-11-20T02:39:44;100478.97;;;-0.94;100.00
23473;BME280;11909;52.516;13.564;2022-11-20T02:42:13;100487.22;;;-0.89;100.00
23473;BME280;11909;52.516;13.564;2022-11-20T02:44:40;100487.47;;;-0.90;100.00
23473;BME280;11909;52.516;13.564;2022-11-20T02:47:07;100480.19;;;-0.96;100.00
23473;BME280;11909;52.516;13.564;2022-11-20T02:49:34;100479.16;;;-0.82;100.00
23473;BME280;11909;52.516;13.564;2022-11-20T02:52:00;100476.88;;;-0.85;100.00
23473;BME280;11909;52.516;13.564;2022-11-20T02:54:27;100482.47;;;-0.87;100.00
23473;BME280;11909;52.516;13.564;2022-11-20T02:56:54;100480.59;;;-0.79;100.00
23473;BME280;11909;52.516;13.564;2022-11-20T02:59:21;100477.91;;;-0.79;100.00
23473;BME280;11909;52.516;13.564;2022-11-20T03:01:48;100477.91;;;-0.79;100.00
23473;BME280;11909;52.516;13.564;2022-11-20T03:04:15;100473.94;;;-0.70;100.00
23473;BME280;11909;52.516;13.564;2022-11-20T03:06:41;100475.22;;;-0.79;100.00
23473;BME280;11909;52.516;13.564;2022-11-20T03:09:08;100468.78;;;-0.85;100.00
23473;BME280;11909;52.516;13.564;2022-11-20T03:11:35;100458.81;;;-0.84;100.00
23473;BME280;11909;52.516;13.564;2022-11-20T03:14:02;100458.22;;;-0.87;100.00
23473;BME280;11909;52.516;13.564;2022-11-20T03:16:31;100470.88;;;-0.80;100.00
23473;BME280;11909;52.516;13.564;2022-11-20T03:18:58;100461.53;;;-0.84;100.00
23473;BME280;11909;52.516;13.564;2022-11-20T03:21:25;100459.25;;;-0.94;100.00
23473;BME280;11909;52.516;13.564;2022-11-20T03:23:53;100462.13;;;-0.82;100.00
23473;BME280;11909;52.516;13.564;2022-11-20T03:26:21;100454.47;;;-0.85;100.00
23473;BME280;11909;52.516;13.564;2022-11-20T03:28:49;100453.06;;;-0.88;100.00
23473;BME280;11909;52.516;13.564;2022-11-20T03:31:18;100444.97;;;-0.88;100.00
23473;BME280;11909;52.516;13.564;2022-11-20T03:33:47;100450.13;;;-0.93;100.00
23473;BME280;11909;52.516;13.564;2022-11-20T03:36:15;100451.78;;;-0.79;100.00
23473;BME280;11909;52.516;13.564;2022-11-20T03:38:43;100457.59;;;-0.82;100.00
23473;BME280;11909;52.516;13.564;2022-11-20T03:41:12;100451.41;;;-0.89;100.00
23473;BME280;11909;52.516;13.564;2022-11-20T03:43:39;100453.00;;;-0.81;100.00
23473;BME280;11909;52.516;13.564;2022-11-20T03:46:06;100449.13;;;-0.92;100.00
23473;BME280;11909;52.516;13.564;2022-11-20T03:48:33;100453.88;;;-0.94;100.00
23473;BME280;11909;52.516;13.564;2022-11-20T03:51:12;100451.41;;;-1.03;100.00
23473;BME280;11909;52.516;13.564;2022-11-20T03:53:39;100442.91;;;-0.93;100.00
23473;BME280;11909;52.516;13.564;2022-11-20T03:56:06;100445.16;;;-0.90;100.00
23473;BME280;11909;52.516;13.564;2022-11-20T03:58:34;100452.19;;;-0.82;100.00
23473;BME280;11909;52.516;13.564;2022-11-20T04:01:05;100458.22;;;-0.87;100.00
23473;BME280;11909;52.516;13.564;2022-11-20T04:03:32;100462.78;;;-0.80;100.00
23473;BME280;11909;52.516;13.564;2022-11-20T04:06:02;100449.50;;;-0.82;100.00
23473;BME280;11909;52.516;13.564;2022-11-20T04:08:30;100438.28;;;-0.79;100.00
23473;BME280;11909;52.516;13.564;2022-11-20T04:10:56;100438.09;;;-0.77;100.00
23473;BME280;11909;52.516;13.564;2022-11-20T04:13:23;100442.91;;;-0.93;100.00
23473;BME280;11909;52.516;13.564;2022-11-20T04:15:49;100444.56;;;-0.92;100.00
23473;BME280;11909;52.516;13.564;2022-11-20T04:18:16;100443.31;;;-0.96;100.00
23473;BME280;11909;52.516;13.564;2022-11-20T04:20:42;100448.88;;;-0.84;100.00
23473;BME280;11909;52.516;13.564;2022-11-20T04:23:09;100447.66;;;-0.88;100.00
23473;BME280;11909;52.516;13.564;2022-11-20T04:25:37;100456.38;;;-0.86;100.00
23473;BME280;11909;52.516;13.564;2022-11-20T04:28:04;100441.84;;;-0.92;100.00
23473;BME280;11909;52.516;13.564;2022-11-20T04:30:30;100452.03;;;-1.01;100.00
23473;BME280;11909;52.516;13.564;2022-11-20T04:32:57;100454.91;;;-0.95;100.00
23473;BME280;11909;52.516;13.564;2022-11-20T04:35:23;100446.22;;;-0.91;100.00
23473;BME280;11909;52.516;13.564;2022-11-20T04:37:51;100445.16;;;-0.83;100.00
23473;BME280;11909;52.516;13.564;2022-11-20T04:40:18;100449.69;;;-0.83;100.00
23473;BME280;11909;52.516;13.564;2022-11-20T04:42:45;100440.22;;;-0.93;100.00
23473;BME280;11909;52.516;13.564;2022-11-20T04:45:12;100440.44;;;-1.01;100.00
23473;BME280;11909;52.516;13.564;2022-11-20T04:47:38;100430.28;;;-1.06;100.00
23473;BME280;11909;52.516;13.564;2022-11-20T04:50:06;100431.50;;;-0.95;100.00
23473;BME280;11909;52.516;13.564;2022-11-20T04:52:33;100429.44;;;-0.99;100.00
23473;BME280;11909;52.516;13.564;2022-11-20T04:54:59;100425.72;;;-0.98;100.00
23473;BME280;11909;52.516;13.564;2022-11-20T04:57:26;100425.50;;;-0.97;100.00
23473;BME280;11909;52.516;13.564;2022-11-20T04:59:54;100429.44;;;-0.99;100.00
23473;BME280;11909;52.516;13.564;2022-11-20T05:02:20;100427.78;;;-1.01;100.00
23473;BME280;11909;52.516;13.564;2022-11-20T05:04:47;100425.53;;;-1.04;100.00
23473;BME280;11909;52.516;13.564;2022-11-20T05:07:13;100416.41;;;-1.03;100.00
23473;BME280;11909;52.516;13.564;2022-11-20T05:09:40;100420.16;;;-1.10;100.00
23473;BME280;11909;52.516;13.564;2022-11-20T05:12:07;100416.84;;;-1.12;100.00
23473;BME280;11909;52.516;13.564;2022-11-20T05:14:34;100416.22;;;-1.14;100.00
23473;BME280;11909;52.516;13.564;2022-11-20T05:17:02;100417.06;;;-1.14;100.00
23473;BME280;11909;52.516;13.564;2022-11-20T05:19:28;100419.34;;;-1.11;100.00
23473;BME280;11909;52.516;13.564;2022-11-20T05:21:55;100410.59;;;-1.06;100.00
23473;BME280;11909;52.516;13.564;2022-11-20T05:24:21;100412.06;;;-1.17;100.00
23473;BME280;11909;52.516;13.564;2022-11-20T05:26:48;100406.50;;;-1.22;100.00
23473;BME280;11909;52.516;13.564;2022-11-20T05:29:15;100407.53;;;-1.23;100.00
23473;BME280;11909;52.516;13.564;2022-11-20T05:31:41;100405.47;;;-1.21;100.00
23473;BME280;11909;52.516;13.564;2022-11-20T05:34:09;100409.41;;;-1.24;100.00
23473;BME280;11909;52.516;13.564;2022-11-20T05:36:36;100406.72;;;-1.24;100.00
23473;BME280;11909;52.516;13.564;2022-11-20T05:39:03;100407.13;;;-1.20;100.00
23473;BME280;11909;52.516;13.564;2022-11-20T05:41:29;100404.22;;;-1.19;100.00
23473;BME280;11909;52.516;13.564;2022-11-20T05:43:56;100408.56;;;-1.11;100.00
23473;BME280;11909;52.516;13.564;2022-11-20T05:46:24;100403.19;;;-1.11;100.00
23473;BME280;11909;52.516;13.564;2022-11-20T05:48:50;100401.91;;;-1.08;100.00
23473;BME280;11909;52.516;13.564;2022-11-20T05:51:19;100405.63;;;-1.09;100.00
23473;BME280;11909;52.516;13.564;2022-11-20T05:53:45;100405.44;;;-1.08;100.00
23473;BME280;11909;52.516;13.564;2022-11-20T05:56:14;100393.56;;;-0.93;100.00
23473;BME280;11909;52.516;13.564;2022-11-20T05:58:41;100393.19;;;-1.04;100.00
23473;BME280;11909;52.516;13.564;2022-11-20T06:01:11;100400.84;;;-0.94;100.00
23473;BME280;11909;52.516;13.564;2022-11-20T06:03:39;100402.53;;;-1.06;100.00
23473;BME280;11909;52.516;13.564;2022-11-20T06:06:07;100394.66;;;-1.01;100.00
23473;BME280;11909;52.516;13.564;2022-11-20T06:08:35;100392.56;;;-0.99;100.00
23473;BME280;11909;52.516;13.564;2022-11-20T06:11:06;100389.06;;;-1.06;100.00
23473;BME280;11909;52.516;13.564;2022-11-20T06:13:33;100388.84;;;-1.05;100.00
23473;BME280;11909;52.516;13.564;2022-11-20T06:16:00;100390.69;;;-0.98;100.00
23473;BME280;11909;52.516;13.564;2022-11-20T06:18:27;100389.44;;;-0.96;100.00
23473;BME280;11909;52.516;13.564;2022-11-20T06:21:02;100395.81;;;-0.83;99.29
23473;BME280;11909;52.516;13.564;2022-11-20T06:23:30;100390.84;;;-0.87;100.00
23473;BME280;11909;52.516;13.564;2022-11-20T06:26:01;100390.06;;;-0.94;99.93
23473;BME280;11909;52.516;13.564;2022-11-20T06:28:28;100390.88;;;-0.93;99.81
23473;BME280;11909;52.516;13.564;2022-11-20T06:30:54;100399.19;;;-0.95;99.41
23473;BME280;11909;52.516;13.564;2022-11-20T06:33:21;100392.34;;;-0.97;100.00
23473;BME280;11909;52.516;13.564;2022-11-20T06:35:47;100403.72;;;-0.95;99.49
23473;BME280;11909;52.516;13.564;2022-11-20T06:38:14;100396.72;;;-1.03;99.77
23473;BME280;11909;52.516;13.564;2022-11-20T06:40:40;100396.94;;;-1.05;99.36
23473;BME280;11909;52.516;13.564;2022-11-20T06:43:09;100394.84;;;-1.03;100.00
23473;BME280;11909;52.516;13.564;2022-11-20T06:45:35;100395.88;;;-0.97;100.00
23473;BME280;11909;52.516;13.564;2022-11-20T06:48:02;100397.34;;;-1.01;99.97
23473;BME280;11909;52.516;13.564;2022-11-20T06:50:29;100391.53;;;-0.98;100.00
23473;BME280;11909;52.516;13.564;2022-11-20T06:52:56;100389.28;;;-1.01;100.00
23473;BME280;11909;52.516;13.564;2022-11-20T06:55:22;100385.91;;;-0.96;99.30
23473;BME280;11909;52.516;13.564;2022-11-20T06:57:50;100382.78;;;-0.93;100.00
23473;BME280;11909;52.516;13.564;2022-11-20T07:00:18;100389.03;;;-0.99;100.00
23473;BME280;11909;52.516;13.564;2022-11-20T07:02:45;100387.97;;;-0.92;99.46
23473;BME280;11909;52.516;13.564;2022-11-20T07:05:11;100394.00;;;-0.96;98.71
23473;BME280;11909;52.516;13.564;2022-11-20T07:07:38;100387.63;;;-1.02;99.46
23473;BME280;11909;52.516;13.564;2022-11-20T07:10:05;100384.03;;;-0.89;99.68
23473;BME280;11909;52.516;13.564;2022-11-20T07:12:32;100389.00;;;-0.86;99.19
23473;BME280;11909;52.516;13.564;2022-11-20T07:14:58;100396.47;;;-0.88;99.24
23473;BME280;11909;52.516;13.564;2022-11-20T07:17:26;100382.59;;;-0.92;99.24
23473;BME280;11909;52.516;13.564;2022-11-20T07:19:53;100387.78;;;-0.97;99.16
23473;BME280;11909;52.516;13.564;2022-11-20T07:22:19;100383.22;;;-0.96;99.77
23473;BME280;11909;52.516;13.564;2022-11-20T07:24:46;100386.31;;;-0.86;99.87
23473;BME280;11909;52.516;13.564;2022-11-20T07:27:13;100382.16;;;-0.89;99.68
23473;BME280;11909;52.516;13.564;2022-11-20T07:29:40;100394.81;;;-0.89;99.53
23473;BME280;11909;52.516;13.564;2022-11-20T07:32:06;100384.84;;;-0.89;99.44
23473;BME280;11909;52.516;13.564;2022-11-20T07:34:34;100379.66;;;-0.83;99.40
23473;BME280;11909;52.516;13.564;2022-11-20T07:37:01;100383.59;;;-0.79;98.88
23473;BME280;11909;52.516;13.564;2022-11-20T07:39:27;100384.84;;;-0.82;99.35
23473;BME280;11909;52.516;13.564;2022-11-20T07:41:54;100382.59;;;-0.92;100.00
23473;BME280;11909;52.516;13.564;2022-11-20T07:44:20;100385.28;;;-0.92;100.00
23473;BME280;11909;52.516;13.564;2022-11-20T07:46:47;100375.53;;;-0.86;100.00
23473;BME280;11909;52.516;13.564;2022-11-20T07:49:13;100377.81;;;-0.90;100.00
23473;BME280;11909;52.516;13.564;2022-11-20T07:51:41;100373.00;;;-0.81;100.00
23473;BME280;11909;52.516;13.564;2022-11-20T07:54:08;100368.06;;;-0.91;99.74
23473;BME280;11909;52.516;13.564;2022-11-20T07:56:34;100374.31;;;-0.90;99.65
23473;BME280;11909;52.516;13.564;2022-11-20T07:59:01;100379.00;;;-0.79;99.09
23473;BME280;11909;52.516;13.564;2022-11-20T08:01:27;100388.72;;;-0.64;97.62
23473;BME280;11909;52.516;13.564;2022-11-20T08:03:54;100385.44;;;-0.80;98.04
23473;BME280;11909;52.516;13.564;2022-11-20T08:06:21;100384.78;;;-0.68;97.28
23473;BME280;11909;52.516;13.564;2022-11-20T08:08:48;100382.13;;;-0.82;98.60
23473;BME280;11909;52.516;13.564;2022-11-20T08:11:15;100375.50;;;-0.79;97.19
23473;BME280;11909;52.516;13.564;2022-11-20T08:13:59;100376.56;;;-0.87;98.32
23473;BME280;11909;52.516;13.564;2022-11-20T08:16:42;100367.03;;;-0.90;98.50
23473;BME280;11909;52.516;13.564;2022-11-20T08:19:09;100374.47;;;-0.78;97.51
23473;BME280;11909;52.516;13.564;2022-11-20T08:21:36;100372.38;;;-0.76;97.58
23473;BME280;11909;52.516;13.564;2022-11-20T08:24:05;100370.94;;;-0.85;98.22
23473;BME280;11909;52.516;13.564;2022-11-20T08:26:31;100373.00;;;-0.81;98.08
23473;BME280;11909;52.516;13.564;2022-11-20T08:28:58;100374.06;;;-0.89;97.98
23473;BME280;11909;52.516;13.564;2022-11-20T08:31:26;100359.34;;;-0.79;97.74
23473;BME280;11909;52.516;13.564;2022-11-20T08:33:53;100363.06;;;-0.80;98.13
23473;BME280;11909;52.516;13.564;2022-11-20T08:36:20;100369.44;;;-0.68;97.11
23473;BME280;11909;52.516;13.564;2022-11-20T08:38:47;100364.50;;;-0.78;97.05
23473;BME280;11909;52.516;13.564;2022-11-20T08:41:16;100367.75;;;-0.62;97.66
23473;BME280;11909;52.516;13.564;2022-11-20T08:43:53;100361.16;;;-0.73;97.93
23473;BME280;11909;52.516;13.564;2022-11-20T08:46:21;100358.31;;;-0.78;98.12
23473;BME280;11909;52.516;13.564;2022-11-20T08:48:48;100361.13;;;-0.66;98.15
23473;BME280;11909;52.516;13.564;2022-11-20T08:51:15;100359.66;;;-0.62;97.20
23473;BME280;11909;52.516;13.564;2022-11-20T08:53:42;100356.38;;;-0.71;97.45
23473;BME280;11909;52.516;13.564;2022-11-20T08:56:09;100356.56;;;-0.66;97.23
23473;BME280;11909;52.516;13.564;2022-11-20T08:58:37;100360.09;;;-0.65;96.82
23473;BME280;11909;52.516;13.564;2022-11-20T09:01:04;100356.78;;;-0.67;97.39
23473;BME280;11909;52.516;13.564;2022-11-20T09:03:31;100356.81;;;-0.74;98.10
23473;BME280;11909;52.516;13.564;2022-11-20T09:05:58;100346.03;;;-0.74;98.64
23473;BME280;11909;52.516;13.564;2022-11-20T09:08:26;100357.84;;;-0.68;97.56
23473;BME280;11909;52.516;13.564;2022-11-20T09:10:53;100350.97;;;-0.64;97.46
23473;BME280;11909;52.516;13.564;2022-11-20T09:13:20;100348.25;;;-0.57;97.77
23473;BME280;11909;52.516;13.564;2022-11-20T09:15:52;100354.00;;;-0.54;96.45
23473;BME280;11909;52.516;13.564;2022-11-20T09:18:19;100344.50;;;-0.56;95.90
23473;BME280;11909;52.516;13.564;2022-11-20T09:20:46;100362.28;;;-0.49;94.42
23473;BME280;11909;52.516;13.564;2022-11-20T09:23:12;100382.44;;;-0.58;94.56
23473;BME280;11909;52.516;13.564;2022-11-20T09:25:39;100374.81;;;-0.68;95.56
23473;BME280;11909;52.516;13.564;2022-11-20T09:28:05;100373.59;;;-0.72;95.52
23473;BME280;11909;52.516;13.564;2022-11-20T09:30:32;100372.16;;;-0.75;96.04
23473;BME280;11909;52.516;13.564;2022-11-20T09:33:00;100374.06;;;-0.82;95.92
23473;BME280;11909;52.516;13.564;2022-11-20T09:35:26;100374.22;;;-0.77;96.59
23473;BME280;11909;52.516;13.564;2022-11-20T09:37:53;100366.16;;;-0.77;96.83
23473;BME280;11909;52.516;13.564;2022-11-20T09:40:21;100366.53;;;-0.66;95.85
23473;BME280;11909;52.516;13.564;2022-11-20T09:42:54;100371.09;;;-0.74;96.12
23473;BME280;11909;52.516;13.564;2022-11-20T09:45:30;100363.03;;;-0.74;96.61
23473;BME280;11909;52.516;13.564;2022-11-20T09:48:18;100352.69;;;-0.77;97.18
23473;BME280;11909;52.516;13.564;2022-11-20T09:50:50;100361.75;;;-0.64;95.24
23473;BME280;11909;52.516;13.564;2022-11-20T09:53:30;100357.19;;;-0.70;95.15
23473;BME280;11909;52.516;13.564;2022-11-20T09:56:01;100355.16;;;-0.68;96.01
23473;BME280;11909;52.516;13.564;2022-11-20T09:58:32;100349.50;;;-0.60;95.45
23473;BME280;11909;52.516;13.564;2022-11-20T10:01:07;100358.22;;;-0.65;94.35
23473;BME280;11909;52.516;13.564;2022-11-20T10:03:42;100356.56;;;-0.66;94.59
23473;BME280;11909;52.516;13.564;2022-11-20T10:06:15;100362.97;;;-0.60;94.48
23473;BME280;11909;52.516;13.564;2022-11-20T10:08:45;100358.78;;;-0.56;94.35
23473;BME280;11909;52.516;13.564;2022-11-20T10:11:19;100354.44;;;-0.57;93.43
23473;BME280;11909;52.516;13.564;2022-11-20T10:13:53;100358.84;;;-0.69;93.95
23473;BME280;11909;52.516;13.564;2022-11-20T10:16:30;100338.16;;;-0.76;94.79
23473;BME280;11909;52.516;13.564;2022-11-20T10:19:13;100347.25;;;-0.70;95.28
23473;BME280;11909;52.516;13.564;2022-11-20T10:21:55;100339.53;;;-0.60;94.65
23473;BME280;11909;52.516;13.564;2022-11-20T10:24:38;100334.19;;;-0.66;94.35
23473;BME280;11909;52.516;13.564;2022-11-20T10:27:20;100336.88;;;-0.66;94.65
23473;BME280;11909;52.516;13.564;2022-11-20T10:30:00;100337.03;;;-0.54;94.21
23473;BME280;11909;52.516;13.564;2022-11-20T10:32:32;100332.00;;;-0.51;92.76
23473;BME280;11909;52.516;13.564;2022-11-20T10:35:05;100332.84;;;-0.50;93.67
23473;BME280;11909;52.516;13.564;2022-11-20T10:37:37;100328.69;;;-0.53;92.30
23473;BME280;11909;52.516;13.564;2022-11-20T10:40:20;100333.50;;;-0.55;93.00
23473;BME280;11909;52.516;13.564;2022-11-20T10:42:52;100321.63;;;-0.47;92.98
23473;BME280;11909;52.516;13.564;2022-11-20T10:45:36;100321.66;;;-0.54;93.55
23473;BME280;11909;52.516;13.564;2022-11-20T10:48:14;100316.72;;;-0.57;94.65
23473;BME280;11909;52.516;13.564;2022-11-20T10:50:53;100321.69;;;-0.61;94.82
23473;BME280;11909;52.516;13.564;2022-11-20T10:53:33;100310.19;;;-0.42;94.78
23473;BME280;11909;52.516;13.564;2022-11-20T10:56:09;100309.97;;;-0.41;93.59
23473;BME280;11909;52.516;13.564;2022-11-20T10:58:46;100317.13;;;-0.53;93.84
23473;BME280;11909;52.516;13.564;2022-11-20T11:01:17;100319.09;;;-0.42;93.96
23473;BME280;11909;52.516;13.564;2022-11-20T11:03:44;100314.41;;;-0.53;94.39
23473;BME280;11909;52.516;13.564;2022-11-20T11:06:17;100317.03;;;-0.47;95.20
23473;BME280;11909;52.516;13.564;2022-11-20T11:08:49;100311.25;;;-0.44;95.17
23473;BME280;11909;52.516;13.564;2022-11-20T11:11:21;100311.38;;;-0.32;95.87
23473;BME280;11909;52.516;13.564;2022-11-20T11:13:49;100317.94;;;-0.21;93.65
23473;BME280;11909;52.516;13.564;2022-11-20T11:16:20;100319.38;;;-0.25;94.11
23473;BME280;11909;52.516;13.564;2022-11-20T11:18:47;100319.22;;;-0.30;94.49
23473;BME280;11909;52.516;13.564;2022-11-20T11:21:21;100310.31;;;-0.05;93.78
23473;BME280;11909;52.516;13.564;2022-11-20T11:23:57;100311.75;;;-0.03;93.59
23473;BME280;11909;52.516;13.564;2022-11-20T11:26:25;100306.34;;;-0.03;93.48
23473;BME280;11909;52.516;13.564;2022-11-20T11:28:53;100313.34;;;0.05;92.58
23473;BME280;11909;52.516;13.564;2022-11-20T11:31:24;100309.25;;;-0.04;91.88
23473;BME280;11909;52.516;13.564;2022-11-20T11:33:51;100310.09;;;-0.04;92.47
23473;BME280;11909;52.516;13.564;2022-11-20T11:36:21;100306.19;;;-0.08;93.40
23473;BME280;11909;52.516;13.564;2022-11-20T11:38:51;100296.88;;;-0.12;92.52
23473;BME280;11909;52.516;13.564;2022-11-20T11:41:22;100304.34;;;-0.14;93.38
23473;BME280;11909;52.516;13.564;2022-11-20T11:43:51;100294.38;;;-0.07;92.56
23473;BME280;11909;52.516;13.564;2022-11-20T11:46:36;100296.00;;;-0.06;92.20
23473;BME280;11909;52.516;13.564;2022-11-20T11:49:15;100288.72;;;-0.05;92.84
23473;BME280;11909;52.516;13.564;2022-11-20T11:52:00;100295.41;;;-0.08;92.59
23473;BME280;11909;52.516;13.564;2022-11-20T11:54:34;100290.97;;;-0.02;92.80
23473;BME280;11909;52.516;13.564;2022-11-20T11:57:08;100290.31;;;0.03;92.88
23473;BME280;11909;52.516;13.564;2022-11-20T11:59:44;100294.22;;;0.07;91.49
23473;BME280;11909;52.516;13.564;2022-11-20T12:02:25;100284.63;;;-0.08;91.78
23473;BME280;11909;52.516;13.564;2022-11-20T12:04:59;100294.53;;;-0.02;92.27
23473;BME280;11909;52.516;13.564;2022-11-20T12:07:38;100287.22;;;-0.01;92.65
23473;BME280;11909;52.516;13.564;2022-11-20T12:10:21;100286.56;;;0.04;92.05
23473;BME280;11909;52.516;13.564;2022-11-20T12:12:52;100277.28;;;-0.01;92.94
23473;BME280;11909;52.516;13.564;2022-11-20T12:15:29;100284.44;;;0.12;92.82
23473;BME280;11909;52.516;13.564;2022-11-20T12:17:56;100278.88;;;0.07;94.41
23473;BME280;11909;52.516;13.564;2022-11-20T12:20:25;100277.44;;;0.05;95.19
23473;BME280;11909;52.516;13.564;2022-11-20T12:22:57;100265.44;;;0.01;95.39
23473;BME280;11909;52.516;13.564;2022-11-20T12:25:28;100268.69;;;-0.16;96.98
23473;BME280;11909;52.516;13.564;2022-11-20T12:28:10;100268.50;;;-0.15;97.61
23473;BME280;11909;52.516;13.564;2022-11-20T12:30:42;100257.47;;;-0.13;97.93
23473;BME280;11909;52.516;13.564;2022-11-20T12:36:21;100257.19;;;-0.05;98.80
23473;BME280;11909;52.516;13.564;2022-11-20T12:39:02;100253.00;;;-0.01;98.00
23473;BME280;11909;52.516;13.564;2022-11-20T12:41:46;100256.34;;;-0.05;98.04
23473;BME280;11909;52.516;13.564;2022-11-20T12:44:43;100251.56;;;-0.03;97.57
23473;BME280;11909;52.516;13.564;2022-11-20T12:47:40;100244.81;;;-0.12;98.14
23473;BME280;11909;52.516;13.564;2022-11-20T12:50:17;100242.63;;;-0.22;98.96